Christopher G — WDB3864 — position and weather

sailwx.info

Track history (hours):
 
Tides and Currents Weather Stations Pressure Air Temp Water Temp Dewpoint Dewpoint Depression Visibility Wind Speed Wind Dir Waves Ship Positions

Christopher G

Owner: PACIFIC TUGBOAT SERVICE INC, SAN DIEGO, CA. More information available from US FCC via Universal Licensing System and Coast Guard Vessel Documentation Center.

Last reported at 2018-May-12 04:39 UTC. Time now 2018-Jul-20 16:23 UTC.
Position N 52°39' W 128°32'.
Warning: this ship's position is months out of date.

Length 23 m; draft 2 m.

Type: Ship (hazmat cat B). MMSI: 366892150.

Date/timePositionNaut miles runAvg speedWind from/ knotsBaromVisibWave heightAir tempDewpointWater temp
2018-May-12 04:39N 52°39' W 128°32'1 9.2
2018-May-12 04:29N 52°37' W 128°32'4 7.6
2018-May-12 03:56N 52°33' W 128°30'4 8.7
2018-May-12 03:30N 52°29' W 128°28'4 9.0
2018-May-12 03:00N 52°25' W 128°29'4 8.6
2018-May-12 02:30N 52°21' W 128°31'6 8.7
2018-May-12 01:49N 52°16' W 128°26'4 8.3
2018-May-12 01:23N 52°15' W 128°20'4 8.3
2018-May-12 00:52N 52°14' W 128°13'2 6.1
2018-May-12 00:30N 52°13' W 128°10'3 6.5
2018-May-11 23:58N 52°10' W 128°08'4 8.3
2018-May-11 23:30N 52°06' W 128°07'5 8.4
2018-May-11 22:58N 52°05' W 128°00'4 7.6
2018-May-11 22:30N 52°02' W 127°56'4 8.4
2018-May-11 22:00N 51°58' W 127°56'4 8.3
2018-May-11 21:30N 51°54' W 127°56'4 8.8
2018-May-11 21:01N 51°50' W 127°55'4 8.8
2018-May-11 20:30N 51°45' W 127°55'4 8.9
2018-May-11 20:00N 51°41' W 127°54'4 8.7
2018-May-11 19:30N 51°36' W 127°53'4 8.4
2018-May-11 19:00N 51°32' W 127°53'4 8.6
2018-May-11 18:31N 51°28' W 127°52'4 8.4
2018-May-11 18:00N 51°24' W 127°51'12 8.4
2018-May-11 16:36N 51°12' W 127°52'2 8.3
2018-May-11 16:24N 51°10' W 127°51'4 8.8
2018-May-11 15:57N 51°07' W 127°50'4 8.7
2018-May-11 15:28N 51°02' W 127°48'4 7.9
2018-May-11 14:59N 50°59' W 127°45'4 8.2
2018-May-11 14:30N 50°56' W 127°41'4 8.3
2018-May-11 14:00N 50°54' W 127°36'4 8.8
2018-May-11 13:30N 50°51' W 127°31'4 8.5
2018-May-11 13:00N 50°48' W 127°26'4 8.2
2018-May-11 12:28N 50°43' W 127°29'0 0.2
2018-May-11 11:55N 50°43' W 127°29'0 0.0
2018-May-11 11:27N 50°43' W 127°29'0 0.0
2018-May-11 11:00N 50°43' W 127°29'0 0.0
2018-May-11 10:30N 50°43' W 127°29'0 0.0
2018-May-11 09:58N 50°43' W 127°29'0 0.0
2018-May-11 09:30N 50°43' W 127°29'0 0.0
2018-May-11 09:00N 50°43' W 127°29'0 0.8
2018-May-11 08:30N 50°44' W 127°29'213 7.5
2018-May-10 03:57N 48°47' W 122°51'12 7.5
2018-May-10 02:22N 48°41' W 122°36'3 8.8
2018-May-10 02:00N 48°43' W 122°33'3 0.1
2018-May-09 07:01N 48°45' W 122°30'0 0.0
2018-May-09 07:00N 48°45' W 122°30'0 0.0
2018-May-09 06:30N 48°45' W 122°30'0 0.0
2018-May-09 06:00N 48°45' W 122°30'0 0.0
2018-May-09 05:30N 48°45' W 122°30'0 0.0
2018-May-09 05:00N 48°45' W 122°30'0 0.0
2018-May-09 04:30N 48°45' W 122°30'0 0.0
2018-May-09 04:00N 48°45' W 122°30'0 0.0
2018-May-09 03:30N 48°45' W 122°30'0 0.0
2018-May-09 03:00N 48°45' W 122°30'0 0.0
2018-May-09 02:30N 48°45' W 122°30'0 0.0
2018-May-09 02:00N 48°45' W 122°30'0 0.0
2018-May-09 01:30N 48°45' W 122°30'0 0.0
2018-May-09 01:00N 48°45' W 122°30'0 0.0
2018-May-09 00:30N 48°45' W 122°30'0 0.0
2018-May-09 00:00N 48°45' W 122°30'0 0.0
2018-May-08 23:30N 48°45' W 122°30'0 0.0
2018-May-08 23:00N 48°45' W 122°30'0 0.6
2018-May-08 22:28N 48°45' W 122°31'1 0.9
2018-May-08 21:05N 48°44' W 122°31'1 8.3
2018-May-08 20:59N 48°43' W 122°32'4 8.3
2018-May-08 20:28N 48°39' W 122°33'4 8.3
2018-May-08 20:00N 48°35' W 122°34'4 7.9
2018-May-08 19:30N 48°32' W 122°34'1 2.5
2018-May-08 19:00N 48°31' W 122°36'1 1.2
2018-May-08 18:30N 48°31' W 122°37'0 0.0
2018-May-08 18:00N 48°31' W 122°37'0 0.0
2018-May-08 17:30N 48°31' W 122°37'0 0.0
2018-May-08 17:00N 48°31' W 122°37'0 0.0
2018-May-08 16:30N 48°31' W 122°37'0 0.0
2018-May-08 16:00N 48°31' W 122°37'0 0.1
2018-May-08 15:28N 48°31' W 122°36'1 1.5
2018-May-08 15:00N 48°31' W 122°36'0 0.0
2018-May-08 14:30N 48°31' W 122°36'0 0.0
2018-May-08 14:00N 48°31' W 122°36'0 0.0
2018-May-08 13:30N 48°31' W 122°36'0 0.0
2018-May-08 13:00N 48°31' W 122°36'0 0.0
2018-May-08 12:30N 48°31' W 122°36'0 0.0
2018-May-08 12:00N 48°31' W 122°36'0 0.0
2018-May-08 11:30N 48°31' W 122°36'0 0.0
2018-May-08 11:00N 48°31' W 122°36'0 0.0
2018-May-08 10:30N 48°31' W 122°36'0 0.0
2018-May-08 10:00N 48°31' W 122°36'0 0.0
2018-May-08 09:30N 48°31' W 122°36'0 0.0
2018-May-08 09:00N 48°31' W 122°36'0 0.1
2018-May-08 08:30N 48°31' W 122°35'0 0.0
2018-May-08 08:00N 48°31' W 122°35'0 0.0
2018-May-08 07:30N 48°31' W 122°35'0 0.0
2018-May-08 07:00N 48°31' W 122°35'0 0.0
2018-May-08 06:30N 48°31' W 122°35'0 0.0
2018-May-08 06:00N 48°31' W 122°35'0 0.0
2018-May-08 05:30N 48°31' W 122°35'12 8.9
2018-May-08 04:09N 48°24' W 122°51'211.2
2018-May-08 03:59N 48°24' W 122°53'911.5
2018-May-08 03:13N 48°23' W 123°07'311.1
2018-May-08 02:59N 48°23' W 123°11'612.0
2018-May-08 02:30N 48°23' W 123°19'  
Track history (hours):
 
Tides and Currents Weather Stations Pressure Air Temp Water Temp Dewpoint Dewpoint Depression Visibility Wind Speed Wind Dir Waves Ship Positions

Christopher G

Owner: PACIFIC TUGBOAT SERVICE INC, SAN DIEGO, CA. More information available from US FCC via Universal Licensing System and Coast Guard Vessel Documentation Center.

Last reported at 2018-May-12 04:39 UTC. Time now 2018-Jul-20 16:23 UTC.
Position N 52°39' W 128°32'.
Warning: this ship's position is months out of date.

Length 23 m; draft 2 m.

Type: Ship (hazmat cat B). MMSI: 366892150.

Date/timePositionNaut miles runAvg speedWind from/ knotsBaromVisibWave heightAir tempDewpointWater temp
2018-May-12 04:39N 52°39' W 128°32'1 9.2
2018-May-12 04:29N 52°37' W 128°32'4 7.6
2018-May-12 03:56N 52°33' W 128°30'4 8.7
2018-May-12 03:30N 52°29' W 128°28'4 9.0
2018-May-12 03:00N 52°25' W 128°29'4 8.6
2018-May-12 02:30N 52°21' W 128°31'6 8.7
2018-May-12 01:49N 52°16' W 128°26'4 8.3
2018-May-12 01:23N 52°15' W 128°20'4 8.3
2018-May-12 00:52N 52°14' W 128°13'2 6.1
2018-May-12 00:30N 52°13' W 128°10'3 6.5
2018-May-11 23:58N 52°10' W 128°08'4 8.3
2018-May-11 23:30N 52°06' W 128°07'5 8.4
2018-May-11 22:58N 52°05' W 128°00'4 7.6
2018-May-11 22:30N 52°02' W 127°56'4 8.4
2018-May-11 22:00N 51°58' W 127°56'4 8.3
2018-May-11 21:30N 51°54' W 127°56'4 8.8
2018-May-11 21:01N 51°50' W 127°55'4 8.8
2018-May-11 20:30N 51°45' W 127°55'4 8.9
2018-May-11 20:00N 51°41' W 127°54'4 8.7
2018-May-11 19:30N 51°36' W 127°53'4 8.4
2018-May-11 19:00N 51°32' W 127°53'4 8.6
2018-May-11 18:31N 51°28' W 127°52'4 8.4
2018-May-11 18:00N 51°24' W 127°51'12 8.4
2018-May-11 16:36N 51°12' W 127°52'2 8.3
2018-May-11 16:24N 51°10' W 127°51'4 8.8
2018-May-11 15:57N 51°07' W 127°50'4 8.7
2018-May-11 15:28N 51°02' W 127°48'4 7.9
2018-May-11 14:59N 50°59' W 127°45'4 8.2
2018-May-11 14:30N 50°56' W 127°41'4 8.3
2018-May-11 14:00N 50°54' W 127°36'4 8.8
2018-May-11 13:30N 50°51' W 127°31'4 8.5
2018-May-11 13:00N 50°48' W 127°26'4 8.2
2018-May-11 12:28N 50°43' W 127°29'0 0.2
2018-May-11 11:55N 50°43' W 127°29'0 0.0
2018-May-11 11:27N 50°43' W 127°29'0 0.0
2018-May-11 11:00N 50°43' W 127°29'0 0.0
2018-May-11 10:30N 50°43' W 127°29'0 0.0
2018-May-11 09:58N 50°43' W 127°29'0 0.0
2018-May-11 09:30N 50°43' W 127°29'0 0.0
2018-May-11 09:00N 50°43' W 127°29'0 0.8
2018-May-11 08:30N 50°44' W 127°29'213 7.5
2018-May-10 03:57N 48°47' W 122°51'12 7.5
2018-May-10 02:22N 48°41' W 122°36'3 8.8
2018-May-10 02:00N 48°43' W 122°33'3 0.1
2018-May-09 07:01N 48°45' W 122°30'0 0.0
2018-May-09 07:00N 48°45' W 122°30'0 0.0
2018-May-09 06:30N 48°45' W 122°30'0 0.0
2018-May-09 06:00N 48°45' W 122°30'0 0.0
2018-May-09 05:30N 48°45' W 122°30'0 0.0
2018-May-09 05:00N 48°45' W 122°30'0 0.0
2018-May-09 04:30N 48°45' W 122°30'0 0.0
2018-May-09 04:00N 48°45' W 122°30'0 0.0
2018-May-09 03:30N 48°45' W 122°30'0 0.0
2018-May-09 03:00N 48°45' W 122°30'0 0.0
2018-May-09 02:30N 48°45' W 122°30'0 0.0
2018-May-09 02:00N 48°45' W 122°30'0 0.0
2018-May-09 01:30N 48°45' W 122°30'0 0.0
2018-May-09 01:00N 48°45' W 122°30'0 0.0
2018-May-09 00:30N 48°45' W 122°30'0 0.0
2018-May-09 00:00N 48°45' W 122°30'0 0.0
2018-May-08 23:30N 48°45' W 122°30'0 0.0
2018-May-08 23:00N 48°45' W 122°30'0 0.6
2018-May-08 22:28N 48°45' W 122°31'1 0.9
2018-May-08 21:05N 48°44' W 122°31'1 8.3
2018-May-08 20:59N 48°43' W 122°32'4 8.3
2018-May-08 20:28N 48°39' W 122°33'4 8.3
2018-May-08 20:00N 48°35' W 122°34'4 7.9
2018-May-08 19:30N 48°32' W 122°34'1 2.5
2018-May-08 19:00N 48°31' W 122°36'1 1.2
2018-May-08 18:30N 48°31' W 122°37'0 0.0
2018-May-08 18:00N 48°31' W 122°37'0 0.0
2018-May-08 17:30N 48°31' W 122°37'0 0.0
2018-May-08 17:00N 48°31' W 122°37'0 0.0
2018-May-08 16:30N 48°31' W 122°37'0 0.0
2018-May-08 16:00N 48°31' W 122°37'0 0.1
2018-May-08 15:28N 48°31' W 122°36'1 1.5
2018-May-08 15:00N 48°31' W 122°36'0 0.0
2018-May-08 14:30N 48°31' W 122°36'0 0.0
2018-May-08 14:00N 48°31' W 122°36'0 0.0
2018-May-08 13:30N 48°31' W 122°36'0 0.0
2018-May-08 13:00N 48°31' W 122°36'0 0.0
2018-May-08 12:30N 48°31' W 122°36'0 0.0
2018-May-08 12:00N 48°31' W 122°36'0 0.0
2018-May-08 11:30N 48°31' W 122°36'0 0.0
2018-May-08 11:00N 48°31' W 122°36'0 0.0
2018-May-08 10:30N 48°31' W 122°36'0 0.0
2018-May-08 10:00N 48°31' W 122°36'0 0.0
2018-May-08 09:30N 48°31' W 122°36'0 0.0
2018-May-08 09:00N 48°31' W 122°36'0 0.1
2018-May-08 08:30N 48°31' W 122°35'0 0.0
2018-May-08 08:00N 48°31' W 122°35'0 0.0
2018-May-08 07:30N 48°31' W 122°35'0 0.0
2018-May-08 07:00N 48°31' W 122°35'0 0.0
2018-May-08 06:30N 48°31' W 122°35'0 0.0
2018-May-08 06:00N 48°31' W 122°35'0 0.0
2018-May-08 05:30N 48°31' W 122°35'12 8.9
2018-May-08 04:09N 48°24' W 122°51'211.2
2018-May-08 03:59N 48°24' W 122°53'911.5
2018-May-08 03:13N 48°23' W 123°07'311.1
2018-May-08 02:59N 48°23' W 123°11'612.0
2018-May-08 02:30N 48°23' W 123°19'  

Dump ship's entire track history